createdAt,value
2023-05-08T00:06:42.065Z,3.40
2023-05-08T00:17:07.959Z,2.70
2023-05-08T00:27:34.181Z,3.20
2023-05-08T00:38:00.095Z,3.00
2023-05-08T00:48:26.304Z,3.40
2023-05-08T00:58:53.303Z,3.00
2023-05-08T01:09:19.399Z,3.00
2023-05-08T01:19:59.156Z,3.50
2023-05-08T01:30:55.084Z,3.10
2023-05-08T01:41:29.435Z,3.10
2023-05-08T01:52:04.368Z,2.30
2023-05-08T02:02:32.307Z,2.90
2023-05-08T02:12:59.696Z,2.10
2023-05-08T02:23:27.521Z,2.50
2023-05-08T02:33:55.427Z,2.20
2023-05-08T02:54:54.021Z,2.10
2023-05-08T03:05:21.946Z,3.00
2023-05-08T03:15:56.250Z,2.20
2023-05-08T03:26:23.065Z,3.00
2023-05-08T03:36:49.913Z,2.40
2023-05-08T03:47:15.803Z,3.10
2023-05-08T03:57:47.210Z,3.30
2023-05-08T04:08:21.722Z,2.10
2023-05-08T04:18:51.130Z,2.30
2023-05-08T04:29:17.433Z,2.40
2023-05-08T04:39:43.831Z,1.90
2023-05-08T04:50:11.060Z,2.00
2023-05-08T05:00:37.044Z,2.30
2023-05-08T05:11:02.851Z,2.40
2023-05-08T05:21:28.340Z,2.20
2023-05-08T05:31:53.904Z,3.20
2023-05-08T05:42:19.617Z,1.90
2023-05-08T05:52:45.260Z,1.70
2023-05-08T06:03:12.258Z,2.20
2023-05-08T06:13:40.321Z,2.70
2023-05-08T06:24:07.074Z,2.60
2023-05-08T06:34:32.776Z,2.00
2023-05-08T06:44:58.541Z,2.30
2023-05-08T06:55:24.919Z,2.10
2023-05-08T07:05:50.890Z,1.40
2023-05-08T07:16:17.128Z,1.90
2023-05-08T07:26:43.351Z,1.20
2023-05-08T07:37:10.125Z,1.90
2023-05-08T07:47:35.713Z,2.00
2023-05-08T07:58:01.291Z,2.20
2023-05-08T08:08:28.734Z,2.20
2023-05-08T08:18:54.940Z,2.40
2023-05-08T08:29:21.007Z,2.00
2023-05-08T08:39:48.546Z,2.40
2023-05-08T08:50:16.285Z,2.10
2023-05-08T09:00:42.768Z,2.00
2023-05-08T09:11:08.801Z,2.50
2023-05-08T09:21:35.476Z,2.20
2023-05-08T09:32:00.942Z,2.80
2023-05-08T09:42:32.188Z,2.90
2023-05-08T09:52:58.309Z,2.00
2023-05-08T10:03:24.699Z,2.80
2023-05-08T10:13:50.679Z,2.40
2023-05-08T10:24:19.577Z,2.10
2023-05-08T10:45:12.674Z,2.80
2023-05-08T10:55:41.517Z,1.60
2023-05-08T11:06:07.551Z,1.80
2023-05-08T11:17:14.089Z,8.10
2023-05-08T11:28:17.947Z,2.10
2023-05-08T11:38:45.332Z,2.60
2023-05-08T11:49:17.780Z,2.20
2023-05-08T11:59:45.558Z,2.10
2023-05-08T12:10:13.031Z,2.40
2023-05-08T12:31:23.032Z,2.80
2023-05-08T12:41:53.876Z,2.10
2023-05-08T12:52:19.646Z,2.70
2023-05-08T13:02:54.941Z,2.70
2023-05-08T13:13:23.326Z,2.50
2023-05-08T13:23:49.252Z,2.50
2023-05-08T13:34:15.322Z,1.70
2023-05-08T13:44:40.974Z,1.90
2023-05-08T13:55:09.379Z,1.90
2023-05-08T14:15:59.871Z,1.30
2023-05-08T14:26:26.545Z,1.60
2023-05-08T14:36:52.638Z,1.70
2023-05-08T14:47:18.475Z,1.40
2023-05-08T14:57:44.571Z,2.20
2023-05-08T15:08:11.028Z,2.30
2023-05-08T15:18:37.345Z,2.00
2023-05-08T15:29:03.306Z,2.50
2023-05-08T15:39:29.100Z,1.60
2023-05-08T15:49:54.803Z,1.40
2023-05-08T16:00:23.221Z,1.50
2023-05-08T16:10:52.443Z,1.90
2023-05-08T16:21:18.522Z,2.30
2023-05-08T16:31:44.128Z,2.20
2023-05-08T16:42:09.836Z,1.60
2023-05-08T16:52:36.276Z,1.50
2023-05-08T17:03:02.151Z,1.80
2023-05-08T17:13:28.228Z,1.80
2023-05-08T17:23:54.961Z,1.80
2023-05-08T17:34:20.842Z,1.90
2023-05-08T17:44:47.473Z,2.00
2023-05-08T17:55:13.806Z,2.10
2023-05-08T18:05:40.451Z,2.40
2023-05-08T18:16:05.992Z,2.40
2023-05-08T18:26:31.821Z,2.60
2023-05-08T18:36:58.154Z,3.00
2023-05-08T18:47:23.976Z,2.90
2023-05-08T18:57:49.582Z,3.30
2023-05-08T19:08:16.064Z,3.70
2023-05-08T19:18:42.205Z,3.20
2023-05-08T19:29:08.121Z,3.40
2023-05-08T19:39:33.741Z,3.80
2023-05-08T19:49:59.359Z,3.60
2023-05-08T20:00:25.395Z,4.90
2023-05-08T20:10:51.524Z,5.30
2023-05-08T20:21:17.044Z,6.70
2023-05-08T20:31:42.297Z,5.20
2023-05-08T20:42:08.171Z,6.90
2023-05-08T20:52:35.385Z,6.00
2023-05-08T21:03:04.019Z,6.90
2023-05-08T21:13:29.868Z,5.90
2023-05-08T21:23:55.976Z,7.00
2023-05-08T21:34:22.402Z,6.90
2023-05-08T21:44:48.250Z,6.50
2023-05-08T21:55:14.575Z,5.90
2023-05-08T22:05:40.794Z,7.30
2023-05-08T22:16:08.123Z,6.30
2023-05-08T22:26:33.838Z,5.20
2023-05-08T22:37:00.049Z,6.80
2023-05-08T22:47:25.996Z,6.80
2023-05-08T22:57:51.876Z,6.00
2023-05-08T23:08:17.506Z,5.90
2023-05-08T23:18:43.460Z,6.30
2023-05-08T23:29:09.297Z,5.80
2023-05-08T23:39:41.198Z,5.80
2023-05-08T23:50:08.364Z,7.80
